Nissho Maru No.58 — JD3673 — position and weather

sailwx.info

Track history (hours):
 
Tides and Currents Weather Stations Pressure Air Temp Water Temp Dewpoint Dewpoint Depression Visibility Wind Speed Wind Dir Waves Ship Positions

Nissho Maru No.58

Last reported at 2018-Jul-21 10:49 UTC. Time now 2018-Jul-21 21:08 UTC.
Position N 34°57' E 139°44'.

Length 62 m; draft 3.9 m.

Type: Cargo ship. MMSI: 431005286.

Date/timePositionNaut miles runAvg speedWind from/ knotsBaromVisibWave heightAir tempDewpointWater temp
2018-Jul-21 10:49N 34°57' E 139°44'412.7
2018-Jul-21 10:30N 35°01' E 139°43'611.8
2018-Jul-21 10:00N 35°07' E 139°45'611.5
2018-Jul-21 09:30N 35°12' E 139°46'611.0
2018-Jul-21 09:00N 35°18' E 139°45'611.6
2018-Jul-21 08:30N 35°23' E 139°42'611.7
2018-Jul-21 08:00N 35°28' E 139°47'611.4
2018-Jul-21 07:29N 35°33' E 139°50'6 0.1
2018-Jul-19 11:20N 35°38' E 139°46'411.2
2018-Jul-19 11:00N 35°35' E 139°48'510.9
2018-Jul-19 10:30N 35°30' E 139°49'612.7
2018-Jul-19 10:00N 35°24' E 139°46'612.2
2018-Jul-19 09:30N 35°18' E 139°45'612.4
2018-Jul-19 09:00N 35°12' E 139°47'612.5
2018-Jul-19 08:30N 35°05' E 139°45'11 0.7
2018-Jul-18 15:47N 34°55' E 139°42'412.7
2018-Jul-18 15:30N 34°58' E 139°43'612.3
2018-Jul-18 15:00N 35°04' E 139°44'612.4
2018-Jul-18 14:30N 35°10' E 139°46'1212.1
2018-Jul-18 13:30N 35°22' E 139°42'612.2
2018-Jul-18 13:00N 35°27' E 139°46'712.2
2018-Jul-18 12:27N 35°33' E 139°50'6 0.3
2018-Jul-17 11:53N 35°38' E 139°46'411.3
2018-Jul-17 11:30N 35°34' E 139°48'611.0
2018-Jul-17 11:00N 35°29' E 139°48'712.8
2018-Jul-17 10:29N 35°23' E 139°46'611.9
2018-Jul-17 10:00N 35°17' E 139°46'612.5
2018-Jul-17 09:30N 35°11' E 139°47'713.0
2018-Jul-17 09:00N 35°04' E 139°45'612.0
2018-Jul-17 08:29N 34°58' E 139°44'1 0.1
2018-Jul-16 11:26N 34°57' E 139°44'512.8
2018-Jul-16 11:00N 35°02' E 139°43'611.4
2018-Jul-16 10:31N 35°08' E 139°45'611.7
2018-Jul-16 10:01N 35°13' E 139°46'611.1
2018-Jul-16 09:30N 35°19' E 139°44'510.5
2018-Jul-16 09:00N 35°24' E 139°43'611.3
2018-Jul-16 08:30N 35°28' E 139°47'511.0
2018-Jul-16 08:01N 35°33' E 139°50'611.5
2018-Jul-16 07:30N 35°38' E 139°46'1 0.0
2018-Jul-14 11:22N 35°37' E 139°46'412.0
2018-Jul-14 11:00N 35°34' E 139°49'611.9
2018-Jul-14 10:30N 35°28' E 139°48'612.0
2018-Jul-14 10:00N 35°22' E 139°45'611.3
2018-Jul-14 09:30N 35°17' E 139°46'612.0
2018-Jul-14 09:00N 35°11' E 139°47'713.1
2018-Jul-14 08:30N 35°04' E 139°45'8 0.5
2018-Jul-13 16:00N 34°56' E 139°43'612.8
2018-Jul-13 15:30N 35°02' E 139°44'612.7
2018-Jul-13 15:00N 35°09' E 139°45'1212.0
2018-Jul-13 14:00N 35°20' E 139°42'611.8
2018-Jul-13 13:30N 35°26' E 139°45'712.6
2018-Jul-13 12:59N 35°31' E 139°50'510.5
2018-Jul-13 12:30N 35°36' E 139°47'3 0.1
2018-Jul-12 09:49N 35°38' E 139°45'310.0
2018-Jul-12 09:29N 35°35' E 139°47'510.4
2018-Jul-12 09:00N 35°30' E 139°49'612.1
2018-Jul-12 08:30N 35°25' E 139°46'612.0
2018-Jul-12 08:00N 35°19' E 139°44'611.8
2018-Jul-12 07:30N 35°14' E 139°47'612.3
2018-Jul-12 07:00N 35°08' E 139°46'613.0
2018-Jul-12 06:30N 35°01' E 139°45'5 0.4
2018-Jul-11 16:08N 34°56' E 139°43'213.0
2018-Jul-11 16:00N 34°58' E 139°43'612.4
2018-Jul-11 15:30N 35°04' E 139°44'612.5
2018-Jul-11 15:00N 35°10' E 139°46'612.0
2018-Jul-11 14:30N 35°16' E 139°46'612.0
2018-Jul-11 14:00N 35°22' E 139°42'611.8
2018-Jul-11 13:30N 35°27' E 139°46'612.1
2018-Jul-11 12:58N 35°32' E 139°50'611.4
2018-Jul-11 12:29N 35°37' E 139°46'  
Track history (hours):
 
Tides and Currents Weather Stations Pressure Air Temp Water Temp Dewpoint Dewpoint Depression Visibility Wind Speed Wind Dir Waves Ship Positions

Nissho Maru No.58

Last reported at 2018-Jul-21 10:49 UTC. Time now 2018-Jul-21 21:08 UTC.
Position N 34°57' E 139°44'.

Length 62 m; draft 3.9 m.

Type: Cargo ship. MMSI: 431005286.

Date/timePositionNaut miles runAvg speedWind from/ knotsBaromVisibWave heightAir tempDewpointWater temp
2018-Jul-21 10:49N 34°57' E 139°44'412.7
2018-Jul-21 10:30N 35°01' E 139°43'611.8
2018-Jul-21 10:00N 35°07' E 139°45'611.5
2018-Jul-21 09:30N 35°12' E 139°46'611.0
2018-Jul-21 09:00N 35°18' E 139°45'611.6
2018-Jul-21 08:30N 35°23' E 139°42'611.7
2018-Jul-21 08:00N 35°28' E 139°47'611.4
2018-Jul-21 07:29N 35°33' E 139°50'6 0.1
2018-Jul-19 11:20N 35°38' E 139°46'411.2
2018-Jul-19 11:00N 35°35' E 139°48'510.9
2018-Jul-19 10:30N 35°30' E 139°49'612.7
2018-Jul-19 10:00N 35°24' E 139°46'612.2
2018-Jul-19 09:30N 35°18' E 139°45'612.4
2018-Jul-19 09:00N 35°12' E 139°47'612.5
2018-Jul-19 08:30N 35°05' E 139°45'11 0.7
2018-Jul-18 15:47N 34°55' E 139°42'412.7
2018-Jul-18 15:30N 34°58' E 139°43'612.3
2018-Jul-18 15:00N 35°04' E 139°44'612.4
2018-Jul-18 14:30N 35°10' E 139°46'1212.1
2018-Jul-18 13:30N 35°22' E 139°42'612.2
2018-Jul-18 13:00N 35°27' E 139°46'712.2
2018-Jul-18 12:27N 35°33' E 139°50'6 0.3
2018-Jul-17 11:53N 35°38' E 139°46'411.3
2018-Jul-17 11:30N 35°34' E 139°48'611.0
2018-Jul-17 11:00N 35°29' E 139°48'712.8
2018-Jul-17 10:29N 35°23' E 139°46'611.9
2018-Jul-17 10:00N 35°17' E 139°46'612.5
2018-Jul-17 09:30N 35°11' E 139°47'713.0
2018-Jul-17 09:00N 35°04' E 139°45'612.0
2018-Jul-17 08:29N 34°58' E 139°44'1 0.1
2018-Jul-16 11:26N 34°57' E 139°44'512.8
2018-Jul-16 11:00N 35°02' E 139°43'611.4
2018-Jul-16 10:31N 35°08' E 139°45'611.7
2018-Jul-16 10:01N 35°13' E 139°46'611.1
2018-Jul-16 09:30N 35°19' E 139°44'510.5
2018-Jul-16 09:00N 35°24' E 139°43'611.3
2018-Jul-16 08:30N 35°28' E 139°47'511.0
2018-Jul-16 08:01N 35°33' E 139°50'611.5
2018-Jul-16 07:30N 35°38' E 139°46'1 0.0
2018-Jul-14 11:22N 35°37' E 139°46'412.0
2018-Jul-14 11:00N 35°34' E 139°49'611.9
2018-Jul-14 10:30N 35°28' E 139°48'612.0
2018-Jul-14 10:00N 35°22' E 139°45'611.3
2018-Jul-14 09:30N 35°17' E 139°46'612.0
2018-Jul-14 09:00N 35°11' E 139°47'713.1
2018-Jul-14 08:30N 35°04' E 139°45'8 0.5
2018-Jul-13 16:00N 34°56' E 139°43'612.8
2018-Jul-13 15:30N 35°02' E 139°44'612.7
2018-Jul-13 15:00N 35°09' E 139°45'1212.0
2018-Jul-13 14:00N 35°20' E 139°42'611.8
2018-Jul-13 13:30N 35°26' E 139°45'712.6
2018-Jul-13 12:59N 35°31' E 139°50'510.5
2018-Jul-13 12:30N 35°36' E 139°47'3 0.1
2018-Jul-12 09:49N 35°38' E 139°45'310.0
2018-Jul-12 09:29N 35°35' E 139°47'510.4
2018-Jul-12 09:00N 35°30' E 139°49'612.1
2018-Jul-12 08:30N 35°25' E 139°46'612.0
2018-Jul-12 08:00N 35°19' E 139°44'611.8
2018-Jul-12 07:30N 35°14' E 139°47'612.3
2018-Jul-12 07:00N 35°08' E 139°46'613.0
2018-Jul-12 06:30N 35°01' E 139°45'5 0.4
2018-Jul-11 16:08N 34°56' E 139°43'213.0
2018-Jul-11 16:00N 34°58' E 139°43'612.4
2018-Jul-11 15:30N 35°04' E 139°44'612.5
2018-Jul-11 15:00N 35°10' E 139°46'612.0
2018-Jul-11 14:30N 35°16' E 139°46'612.0
2018-Jul-11 14:00N 35°22' E 139°42'611.8
2018-Jul-11 13:30N 35°27' E 139°46'612.1
2018-Jul-11 12:58N 35°32' E 139°50'611.4
2018-Jul-11 12:29N 35°37' E 139°46'  

Dump ship's entire track history